Time,TemperatureF,DewpointF,PressureIn,WindDirection,WindDirectionDegrees,WindSpeedMPH,WindSpeedGustMPH,Humidity,HourlyPrecipIn,Conditions,Clouds,dailyrainin,SoftwareType,DateUTC
2013-04-30 00:00:00,57.9,56.3,30.08,NW,326,2.0,9.0,94,-0.01,,,0.00,Weather View 32 v70,2013-04-30 04:00:00,
2013-04-30 00:05:00,57.6,56.0,30.08,NE,38,4.0,9.0,95,-0.01,,,0.00,Weather View 32 v70,2013-04-30 04:05:00,
2013-04-30 00:10:00,57.6,56.0,30.08,North,359,0.0,9.0,94,-0.01,,,0.00,Weather View 32 v70,2013-04-30 04:10:00,
2013-04-30 00:15:00,57.4,55.8,30.08,NNW,347,2.0,9.0,94,-0.01,,,0.00,Weather View 32 v70,2013-04-30 04:15:00,
2013-04-30 00:20:00,57.3,55.8,30.08,NW,311,4.0,9.0,95,-0.01,,,0.00,Weather View 32 v70,2013-04-30 04:20:00,
2013-04-30 00:25:00,57.0,55.5,30.08,WNW,295,4.0,9.0,95,-0.01,,,0.00,Weather View 32 v70,2013-04-30 04:25:00,
2013-04-30 00:30:00,56.9,55.4,30.08,NNW,345,0.0,9.0,95,-0.01,,,0.00,Weather View 32 v70,2013-04-30 04:30:00,
2013-04-30 00:35:00,57.0,55.5,30.09,WNW,291,4.0,9.0,95,-0.01,,,0.00,Weather View 32 v70,2013-04-30 04:35:00,
2013-04-30 00:40:00,56.8,55.3,30.09,NW,304,5.0,9.0,95,-0.01,,,0.00,Weather View 32 v70,2013-04-30 04:40:00,
2013-04-30 00:50:00,56.7,55.2,30.09,NW,308,0.0,9.0,95,-0.01,,,0.00,Weather View 32 v70,2013-04-30 04:50:00,
2013-04-30 00:55:00,56.6,55.2,30.09,NNW,332,4.0,9.0,95,-0.01,,,0.00,Weather View 32 v70,2013-04-30 04:55:00,
2013-04-30 01:00:00,56.6,55.2,30.09,North,352,5.0,9.0,95,0.00,,,0.00,Weather View 32 v70,2013-04-30 05:00:00,
2013-04-30 01:10:00,56.5,55.1,30.10,North,1,7.0,9.0,95,0.00,,,0.00,Weather View 32 v70,2013-04-30 05:10:00,
2013-04-30 01:15:00,56.5,55.0,30.10,North,359,0.0,8.0,95,0.00,,,0.00,Weather View 32 v70,2013-04-30 05:15:00,
2013-04-30 01:20:00,56.4,54.9,30.10,NNE,13,0.0,8.0,95,0.00,,,0.00,Weather View 32 v70,2013-04-30 05:20:00,
2013-04-30 01:30:00,56.4,54.9,30.09,NNW,339,0.0,8.0,95,0.00,,,0.00,Weather View 32 v70,2013-04-30 05:30:00,
2013-04-30 01:35:00,56.3,54.7,30.09,NNW,336,0.0,8.0,95,0.00,,,0.00,Weather View 32 v70,2013-04-30 05:35:00,
2013-04-30 01:40:00,56.3,54.7,30.10,NNW,342,2.0,8.0,94,0.00,,,0.00,Weather View 32 v70,2013-04-30 05:40:00,
2013-04-30 01:50:00,56.1,54.6,30.10,NW,325,0.0,8.0,95,0.00,,,0.00,Weather View 32 v70,2013-04-30 05:50:00,
2013-04-30 01:55:00,56.0,54.5,30.10,NW,314,2.0,8.0,95,0.00,,,0.00,Weather View 32 v70,2013-04-30 05:55:00,
2013-04-30 02:00:00,56.0,54.6,30.09,NNW,330,0.0,8.0,95,0.00,,,0.00,Weather View 32 v70,2013-04-30 06:00:00,
2013-04-30 02:10:00,55.9,54.5,30.09,North,3,0.0,7.0,95,0.00,,,0.00,Weather View 32 v70,2013-04-30 06:10:00,
2013-04-30 02:15:00,55.9,54.5,30.09,NNW,328,1.0,8.0,95,0.00,,,0.00,Weather View 32 v70,2013-04-30 06:15:00,
2013-04-30 02:20:00,55.8,54.4,30.09,North,349,3.0,8.0,95,0.00,,,0.00,Weather View 32 v70,2013-04-30 06:20:00,
2013-04-30 02:30:00,55.7,54.3,30.09,NW,307,0.0,8.0,95,0.00,,,0.00,Weather View 32 v70,2013-04-30 06:30:00,
2013-04-30 02:35:00,55.8,54.4,30.09,North,359,0.0,8.0,95,0.00,,,0.00,Weather View 32 v70,2013-04-30 06:35:00,
2013-04-30 02:40:00,55.7,54.3,30.09,NNW,330,0.0,8.0,95,0.00,,,0.00,Weather View 32 v70,2013-04-30 06:40:00,
2013-04-30 02:50:00,55.7,54.2,30.09,NNW,342,2.0,8.0,95,0.00,,,0.00,Weather View 32 v70,2013-04-30 06:50:00,
2013-04-30 02:55:00,55.7,54.2,30.09,WNW,301,0.0,8.0,95,0.00,,,0.00,Weather View 32 v70,2013-04-30 06:55:00,
2013-04-30 03:00:00,55.6,54.0,30.09,NW,314,3.0,8.0,95,0.00,,,0.00,Weather View 32 v70,2013-04-30 07:00:00,
2013-04-30 03:10:00,55.6,54.0,30.09,NNW,335,0.0,8.0,95,0.00,,,0.00,Weather View 32 v70,2013-04-30 07:10:00,
2013-04-30 03:15:00,55.7,54.1,30.09,NNW,346,2.0,7.0,95,0.00,,,0.00,Weather View 32 v70,2013-04-30 07:15:00,
2013-04-30 03:25:00,55.7,54.2,30.09,NW,316,0.0,7.0,95,0.00,,,0.00,Weather View 32 v70,2013-04-30 07:25:00,
2013-04-30 03:30:00,55.6,54.1,30.09,NW,316,0.0,7.0,95,0.00,,,0.00,Weather View 32 v70,2013-04-30 07:30:00,
2013-04-30 03:35:00,55.6,54.1,30.09,NW,319,0.0,7.0,95,0.00,,,0.00,Weather View 32 v70,2013-04-30 07:35:00,
2013-04-30 03:40:00,55.6,54.2,30.09,North,356,1.0,7.0,95,0.00,,,0.00,Weather View 32 v70,2013-04-30 07:40:00,
2013-04-30 03:45:00,55.5,54.1,30.10,NNW,335,2.0,7.0,95,0.00,,,0.00,Weather View 32 v70,2013-04-30 07:45:00,
2013-04-30 03:50:00,55.5,54.1,30.10,North,349,0.0,7.0,95,0.00,,,0.00,Weather View 32 v70,2013-04-30 07:50:00,
2013-04-30 03:55:00,55.5,54.1,30.10,North,359,0.0,7.0,95,0.00,,,0.00,Weather View 32 v70,2013-04-30 07:55:00,
2013-04-30 04:00:00,55.5,54.1,30.09,NW,318,1.0,6.0,95,0.00,,,0.00,Weather View 32 v70,2013-04-30 08:00:00,
2013-04-30 04:05:00,55.4,54.0,30.09,NNW,330,0.0,6.0,95,0.00,,,0.00,Weather View 32 v70,2013-04-30 08:05:00,
2013-04-30 04:10:00,55.4,54.0,30.10,NNW,333,0.0,6.0,95,0.00,,,0.00,Weather View 32 v70,2013-04-30 08:10:00,
2013-04-30 04:15:00,55.5,54.1,30.09,NNW,347,0.0,6.0,95,0.00,,,0.00,Weather View 32 v70,2013-04-30 08:15:00,
2013-04-30 04:20:00,55.3,54.0,30.10,North,349,0.0,6.0,95,0.00,,,0.00,Weather View 32 v70,2013-04-30 08:20:00,
2013-04-30 04:30:00,55.2,53.9,30.10,NW,304,0.0,6.0,95,0.00,,,0.00,Weather View 32 v70,2013-04-30 08:30:00,
2013-04-30 04:35:00,55.1,53.8,30.10,NW,304,0.0,6.0,96,0.00,,,0.00,Weather View 32 v70,2013-04-30 08:35:00,
2013-04-30 04:40:00,55.2,53.9,30.10,NNW,333,0.0,6.0,96,0.00,,,0.00,Weather View 32 v70,2013-04-30 08:40:00,
2013-04-30 04:50:00,55.1,53.8,30.12,WNW,297,0.0,6.0,96,0.00,,,0.00,Weather View 32 v70,2013-04-30 08:50:00,
2013-04-30 04:55:00,55.1,53.9,30.12,WNW,297,0.0,6.0,96,0.00,,,0.00,Weather View 32 v70,2013-04-30 08:55:00,
2013-04-30 05:00:00,55.1,53.9,30.12,North,7,0.0,6.0,96,0.00,,,0.00,Weather View 32 v70,2013-04-30 09:00:00,
2013-04-30 05:05:00,55.1,53.9,30.12,NW,325,0.0,5.0,96,0.00,,,0.00,Weather View 32 v70,2013-04-30 09:05:00,
2013-04-30 05:15:00,55.1,53.9,30.12,NW,325,0.0,5.0,96,0.00,,,0.00,Weather View 32 v70,2013-04-30 09:15:00,
2013-04-30 05:20:00,55.1,53.9,30.13,NNW,328,0.0,5.0,96,0.00,,,0.00,Weather View 32 v70,2013-04-30 09:20:00,
2013-04-30 05:30:00,55.0,53.8,30.13,NNW,342,0.0,6.0,96,0.00,,,0.00,Weather View 32 v70,2013-04-30 09:30:00,
2013-04-30 05:35:00,55.0,53.8,30.13,NW,318,0.0,6.0,96,0.00,,,0.00,Weather View 32 v70,2013-04-30 09:35:00,
2013-04-30 05:40:00,55.1,53.9,30.14,NW,318,0.0,6.0,96,0.00,,,0.00,Weather View 32 v70,2013-04-30 09:40:00,
2013-04-30 05:45:00,55.0,53.8,30.14,North,359,0.0,6.0,96,0.00,,,0.00,Weather View 32 v70,2013-04-30 09:45:00,
2013-04-30 05:55:00,55.0,53.8,30.14,North,356,0.0,6.0,96,0.00,,,0.00,Weather View 32 v70,2013-04-30 09:55:00,
2013-04-30 06:00:00,54.9,53.7,30.14,North,356,0.0,6.0,96,0.00,,,0.00,Weather View 32 v70,2013-04-30 10:00:00,
2013-04-30 06:05:00,55.1,53.9,30.14,NNW,342,0.0,6.0,96,0.00,,,0.00,Weather View 32 v70,2013-04-30 10:05:00,
2013-04-30 06:15:00,55.1,53.8,30.14,NNW,342,0.0,6.0,96,0.00,,,0.00,Weather View 32 v70,2013-04-30 10:15:00,
2013-04-30 06:20:00,55.1,53.8,30.15,North,349,0.0,6.0,96,0.00,,,0.00,Weather View 32 v70,2013-04-30 10:20:00,
2013-04-30 06:25:00,55.0,53.8,30.15,NW,319,0.0,6.0,96,0.00,,,0.00,Weather View 32 v70,2013-04-30 10:25:00,
2013-04-30 06:35:00,55.0,53.8,30.15,NW,325,0.0,5.0,96,0.00,,,0.00,Weather View 32 v70,2013-04-30 10:35:00,
2013-04-30 06:40:00,55.1,53.9,30.15,NW,325,0.0,5.0,96,0.00,,,0.00,Weather View 32 v70,2013-04-30 10:40:00,
2013-04-30 06:45:00,55.1,53.9,30.16,WNW,298,0.0,5.0,96,0.00,,,0.00,Weather View 32 v70,2013-04-30 10:45:00,
2013-04-30 06:50:00,55.0,53.8,30.16,WNW,298,0.0,4.0,96,0.00,,,0.00,Weather View 32 v70,2013-04-30 10:50:00,
2013-04-30 07:00:00,55.1,53.8,30.16,NW,311,0.0,5.0,96,0.00,,,0.00,Weather View 32 v70,2013-04-30 11:00:00,
2013-04-30 07:05:00,55.1,53.8,30.16,WNW,297,0.0,5.0,96,0.00,,,0.00,Weather View 32 v70,2013-04-30 11:05:00,
2013-04-30 07:10:00,55.3,54.0,30.16,North,359,0.0,5.0,96,0.00,,,0.00,Weather View 32 v70,2013-04-30 11:10:00,
2013-04-30 07:15:00,55.3,54.0,30.16,North,359,0.0,5.0,96,0.00,,,0.00,Weather View 32 v70,2013-04-30 11:15:00,
2013-04-30 07:25:00,55.6,54.3,30.16,NW,321,0.0,5.0,96,0.00,,,0.00,Weather View 32 v70,2013-04-30 11:25:00,
2013-04-30 07:30:00,55.6,54.3,30.17,WNW,300,0.0,5.0,96,0.00,,,0.00,Weather View 32 v70,2013-04-30 11:30:00,
2013-04-30 07:40:00,55.8,54.5,30.17,NNW,332,0.0,6.0,95,0.00,,,0.00,Weather View 32 v70,2013-04-30 11:40:00,
2013-04-30 07:45:00,56.0,54.7,30.18,NW,321,0.0,6.0,95,0.00,,,0.00,Weather View 32 v70,2013-04-30 11:45:00,
2013-04-30 07:50:00,56.0,54.6,30.18,NW,323,0.0,6.0,95,0.00,,,0.00,Weather View 32 v70,2013-04-30 11:50:00,
2013-04-30 08:00:00,56.2,54.8,30.18,NNW,340,0.0,6.0,95,0.00,,,0.00,Weather View 32 v70,2013-04-30 12:00:00,
2013-04-30 08:05:00,56.4,55.0,30.18,NW,319,0.0,6.0,95,0.00,,,0.00,Weather View 32 v70,2013-04-30 12:05:00,
2013-04-30 08:10:00,56.6,55.2,30.18,North,3,0.0,6.0,95,0.00,,,0.00,Weather View 32 v70,2013-04-30 12:10:00,
2013-04-30 08:15:00,56.6,55.1,30.18,West,264,0.0,6.0,95,0.00,,,0.00,Weather View 32 v70,2013-04-30 12:15:00,
2013-04-30 08:25:00,56.6,55.0,30.19,North,359,0.0,7.0,94,0.00,,,0.00,Weather View 32 v70,2013-04-30 12:25:00,
2013-04-30 08:30:00,56.7,55.1,30.19,NNW,347,0.0,7.0,94,0.00,,,0.00,Weather View 32 v70,2013-04-30 12:30:00,
2013-04-30 08:35:00,56.8,55.1,30.19,NNW,335,4.0,7.0,94,0.00,,,0.00,Weather View 32 v70,2013-04-30 12:35:00,
2013-04-30 08:40:00,57.0,55.2,30.19,NW,325,0.0,8.0,94,0.00,,,0.00,Weather View 32 v70,2013-04-30 12:40:00,
2013-04-30 08:50:00,57.4,55.3,30.19,North,354,3.0,10.0,93,0.00,,,0.00,Weather View 32 v70,2013-04-30 12:50:00,
2013-04-30 08:55:00,57.7,55.6,30.19,NW,311,2.0,10.0,93,0.00,,,0.00,Weather View 32 v70,2013-04-30 12:55:00,
2013-04-30 09:00:00,57.7,55.5,30.19,North,359,6.0,10.0,92,0.00,,,0.00,Weather View 32 v70,2013-04-30 13:00:00,
2013-04-30 09:10:00,57.9,55.7,30.19,North,4,5.0,10.0,92,0.00,,,0.00,Weather View 32 v70,2013-04-30 13:10:00,
2013-04-30 09:15:00,58.0,55.5,30.19,NNW,338,4.0,12.0,92,0.00,,,0.00,Weather View 32 v70,2013-04-30 13:15:00,
2013-04-30 09:20:00,57.9,55.5,30.19,WNW,301,10.0,12.0,92,0.00,,,0.00,Weather View 32 v70,2013-04-30 13:20:00,
2013-04-30 09:30:00,57.9,55.4,30.19,NW,319,4.0,12.0,91,0.00,,,0.00,Weather View 32 v70,2013-04-30 13:30:00,
2013-04-30 09:35:00,58.2,55.8,30.19,North,359,4.0,12.0,92,0.00,,,0.00,Weather View 32 v70,2013-04-30 13:35:00,
2013-04-30 09:40:00,58.5,55.8,30.19,NW,315,5.0,12.0,91,0.00,,,0.00,Weather View 32 v70,2013-04-30 13:40:00,
2013-04-30 09:50:00,59.1,56.0,30.19,NW,315,3.0,12.0,90,0.00,,,0.00,Weather View 32 v70,2013-04-30 13:50:00,
2013-04-30 09:55:00,59.3,56.1,30.19,WNW,301,3.0,12.0,89,0.00,,,0.00,Weather View 32 v70,2013-04-30 13:55:00,
2013-04-30 10:00:00,59.5,55.9,30.19,WNW,301,5.0,12.0,88,0.00,,,0.00,Weather View 32 v70,2013-04-30 14:00:00,
2013-04-30 10:05:00,60.0,56.1,30.19,WNW,290,7.0,12.0,87,0.00,,,0.00,Weather View 32 v70,2013-04-30 14:05:00,
2013-04-30 10:15:00,60.7,56.1,30.19,WNW,301,6.0,12.0,85,0.00,,,0.00,Weather View 32 v70,2013-04-30 14:15:00,
2013-04-30 10:25:00,60.8,55.8,30.19,WNW,290,5.0,12.0,84,0.00,,,0.00,Weather View 32 v70,2013-04-30 14:25:00,
2013-04-30 10:30:00,60.7,55.4,30.19,NNW,333,5.0,12.0,83,0.00,,,0.00,Weather View 32 v70,2013-04-30 14:30:00,
2013-04-30 10:35:00,61.1,56.0,30.19,West,269,4.0,12.0,83,0.00,,,0.00,Weather View 32 v70,2013-04-30 14:35:00,
2013-04-30 10:40:00,61.4,55.9,30.19,North,356,2.0,12.0,82,0.00,,,0.00,Weather View 32 v70,2013-04-30 14:40:00,
2013-04-30 10:45:00,61.8,55.9,30.19,NNW,342,3.0,12.0,81,0.00,,,0.00,Weather View 32 v70,2013-04-30 14:45:00,
2013-04-30 10:50:00,62.1,56.3,30.19,North,11,3.0,12.0,81,0.00,,,0.00,Weather View 32 v70,2013-04-30 14:50:00,
2013-04-30 11:00:00,62.1,56.1,30.20,WNW,297,3.0,12.0,81,0.00,,,0.00,Weather View 32 v70,2013-04-30 15:00:00,
2013-04-30 11:10:00,61.7,55.7,30.20,West,270,6.0,10.0,81,0.00,,,0.00,Weather View 32 v70,2013-04-30 15:10:00,
2013-04-30 11:15:00,61.7,55.5,30.20,WNW,297,6.0,10.0,80,0.00,,,0.00,Weather View 32 v70,2013-04-30 15:15:00,
2013-04-30 11:20:00,61.9,55.9,30.20,WNW,285,3.0,10.0,81,0.00,,,0.00,Weather View 32 v70,2013-04-30 15:20:00,
2013-04-30 11:30:00,62.6,56.5,30.20,WNW,300,5.0,10.0,80,0.00,,,0.00,Weather View 32 v70,2013-04-30 15:30:00,
2013-04-30 11:35:00,62.7,56.3,30.20,WNW,297,8.0,10.0,80,0.00,,,0.00,Weather View 32 v70,2013-04-30 15:35:00,
2013-04-30 11:40:00,62.8,56.5,30.19,NW,325,4.0,10.0,80,0.00,,,0.00,Weather View 32 v70,2013-04-30 15:40:00,
2013-04-30 11:45:00,62.9,56.6,30.19,NW,323,6.0,10.0,80,0.00,,,0.00,Weather View 32 v70,2013-04-30 15:45:00,
2013-04-30 11:50:00,63.0,56.6,30.19,NW,326,5.0,10.0,80,0.00,,,0.00,Weather View 32 v70,2013-04-30 15:50:00,
2013-04-30 12:00:00,63.5,56.7,30.19,WNW,302,4.0,10.0,79,0.00,,,0.00,Weather View 32 v70,2013-04-30 16:00:00,
2013-04-30 12:05:00,63.8,57.0,30.19,NW,319,2.0,10.0,79,0.00,,,0.00,Weather View 32 v70,2013-04-30 16:05:00,
2013-04-30 12:10:00,63.8,56.9,30.19,NW,322,5.0,10.0,78,0.00,,,0.00,Weather View 32 v70,2013-04-30 16:10:00,
2013-04-30 12:20:00,63.9,57.3,30.19,NW,326,6.0,10.0,79,0.00,,,0.00,Weather View 32 v70,2013-04-30 16:20:00,
2013-04-30 12:25:00,63.9,57.1,30.19,NNW,330,9.0,10.0,79,0.00,,,0.00,Weather View 32 v70,2013-04-30 16:25:00,
2013-04-30 12:30:00,64.1,57.0,30.18,NNE,21,4.0,10.0,78,0.00,,,0.00,Weather View 32 v70,2013-04-30 16:30:00,
2013-04-30 12:35:00,64.4,57.5,30.19,NNE,13,2.0,10.0,78,0.00,,,0.00,Weather View 32 v70,2013-04-30 16:35:00,
2013-04-30 12:40:00,64.6,56.8,30.18,WNW,302,4.0,10.0,76,0.00,,,0.00,Weather View 32 v70,2013-04-30 16:40:00,
2013-04-30 12:50:00,64.7,56.6,30.18,West,270,3.0,10.0,75,0.00,,,0.00,Weather View 32 v70,2013-04-30 16:50:00,
2013-04-30 12:55:00,65.1,57.1,30.18,NNW,332,2.0,10.0,75,0.00,,,0.00,Weather View 32 v70,2013-04-30 16:55:00,
2013-04-30 13:00:00,65.0,56.6,30.18,West,259,1.0,10.0,74,0.00,,,0.00,Weather View 32 v70,2013-04-30 17:00:00,
2013-04-30 13:10:00,65.1,56.3,30.18,North,357,2.0,10.0,73,0.00,,,0.00,Weather View 32 v70,2013-04-30 17:10:00,
2013-04-30 13:15:00,65.0,56.8,30.18,NW,307,4.0,10.0,75,0.00,,,0.00,Weather View 32 v70,2013-04-30 17:15:00,
2013-04-30 13:20:00,64.8,56.8,30.18,NE,37,3.0,10.0,75,0.00,,,0.00,Weather View 32 v70,2013-04-30 17:20:00,
2013-04-30 13:25:00,64.5,56.7,30.18,WNW,300,3.0,10.0,76,0.00,,,0.00,Weather View 32 v70,2013-04-30 17:25:00,
2013-04-30 13:30:00,64.2,56.8,30.18,NW,315,5.0,9.0,77,0.00,,,0.00,Weather View 32 v70,2013-04-30 17:30:00,
2013-04-30 13:35:00,64.2,57.1,30.18,NW,315,3.0,9.0,78,0.00,,,0.00,Weather View 32 v70,2013-04-30 17:35:00,
2013-04-30 13:40:00,64.1,57.4,30.18,NW,314,6.0,11.0,79,0.00,,,0.00,Weather View 32 v70,2013-04-30 17:40:00,
2013-04-30 13:50:00,64.2,57.2,30.18,NW,315,6.0,11.0,78,0.00,,,0.00,Weather View 32 v70,2013-04-30 17:50:00,
2013-04-30 13:55:00,64.2,57.4,30.18,NW,326,4.0,11.0,79,0.00,,,0.00,Weather View 32 v70,2013-04-30 17:55:00,
2013-04-30 14:00:00,64.3,57.3,30.18,NW,319,8.0,12.0,78,0.00,,,0.00,Weather View 32 v70,2013-04-30 18:00:00,
2013-04-30 14:10:00,64.1,57.5,30.18,NW,308,3.0,12.0,79,0.00,,,0.00,Weather View 32 v70,2013-04-30 18:10:00,
2013-04-30 14:15:00,63.9,57.6,30.18,NNW,343,4.0,12.0,80,0.00,,,0.00,Weather View 32 v70,2013-04-30 18:15:00,
2013-04-30 14:20:00,63.9,57.8,30.19,NW,315,6.0,12.0,81,0.00,,,0.00,Weather View 32 v70,2013-04-30 18:20:00,
2013-04-30 14:25:00,64.2,58.0,30.19,North,11,2.0,12.0,80,0.00,,,0.00,Weather View 32 v70,2013-04-30 18:25:00,
2013-04-30 14:30:00,64.4,57.8,30.19,WNW,301,5.0,12.0,79,0.00,,,0.00,Weather View 32 v70,2013-04-30 18:30:00,
2013-04-30 14:35:00,64.8,58.2,30.19,WNW,298,6.0,12.0,79,0.00,,,0.00,Weather View 32 v70,2013-04-30 18:35:00,
2013-04-30 14:40:00,64.9,58.5,30.19,NW,305,4.0,12.0,80,0.00,,,0.00,Weather View 32 v70,2013-04-30 18:40:00,
2013-04-30 14:50:00,64.8,58.6,30.18,NW,309,10.0,13.0,80,0.00,,,0.00,Weather View 32 v70,2013-04-30 18:50:00,
2013-04-30 14:55:00,64.6,58.0,30.19,NW,315,2.0,13.0,79,0.00,,,0.00,Weather View 32 v70,2013-04-30 18:55:00,
2013-04-30 15:00:00,64.4,57.8,30.19,North,359,8.0,13.0,79,0.00,,,0.00,Weather View 32 v70,2013-04-30 19:00:00,
2013-04-30 15:10:00,64.2,57.5,30.19,NW,311,6.0,13.0,79,0.00,,,0.00,Weather View 32 v70,2013-04-30 19:10:00,
2013-04-30 15:15:00,64.3,57.6,30.19,WNW,293,8.0,13.0,79,0.00,,,0.00,Weather View 32 v70,2013-04-30 19:15:00,
2013-04-30 15:20:00,64.2,57.6,30.19,WNW,288,6.0,13.0,79,0.00,,,0.00,Weather View 32 v70,2013-04-30 19:20:00,
2013-04-30 15:30:00,64.1,57.8,30.19,NW,311,6.0,13.0,80,0.00,,,0.00,Weather View 32 v70,2013-04-30 19:30:00,
2013-04-30 15:35:00,63.9,58.0,30.19,North,6,5.0,13.0,81,0.00,,,0.00,Weather View 32 v70,2013-04-30 19:35:00,
2013-04-30 15:40:00,63.9,58.1,30.19,WNW,290,9.0,13.0,82,0.00,,,0.00,Weather View 32 v70,2013-04-30 19:40:00,
2013-04-30 15:50:00,63.9,58.4,30.20,NW,319,4.0,13.0,82,0.00,,,0.00,Weather View 32 v70,2013-04-30 19:50:00,
2013-04-30 15:55:00,63.9,58.0,30.20,NW,323,5.0,13.0,81,0.00,,,0.00,Weather View 32 v70,2013-04-30 19:55:00,
2013-04-30 16:00:00,63.9,58.1,30.20,NW,308,5.0,13.0,82,0.00,,,0.00,Weather View 32 v70,2013-04-30 20:00:00,
2013-04-30 16:10:00,63.9,57.8,30.20,NE,45,7.0,12.0,81,0.00,,,0.00,Weather View 32 v70,2013-04-30 20:10:00,
2013-04-30 16:20:00,64.2,58.2,30.20,North,8,5.0,12.0,81,0.00,,,0.00,Weather View 32 v70,2013-04-30 20:20:00,
2013-04-30 16:25:00,63.8,57.9,30.20,NNW,336,3.0,12.0,81,0.00,,,0.00,Weather View 32 v70,2013-04-30 20:25:00,
2013-04-30 16:30:00,63.3,58.0,30.20,NNE,20,4.0,12.0,83,0.00,,,0.00,Weather View 32 v70,2013-04-30 20:30:00,
2013-04-30 16:40:00,62.8,57.7,30.21,NNW,342,10.0,11.0,83,0.00,,,0.00,Weather View 32 v70,2013-04-30 20:40:00,
2013-04-30 16:45:00,62.7,57.5,30.21,NNW,332,3.0,11.0,83,0.00,,,0.00,Weather View 32 v70,2013-04-30 20:45:00,
2013-04-30 16:55:00,63.0,58.0,30.20,North,6,4.0,11.0,84,0.00,,,0.00,Weather View 32 v70,2013-04-30 20:55:00,
2013-04-30 17:00:00,63.1,57.7,30.20,NNE,32,8.0,17.0,83,0.00,,,0.00,Weather View 32 v70,2013-04-30 21:00:00,
2013-04-30 17:10:00,63.2,57.8,30.20,North,11,6.0,17.0,83,0.00,,,0.00,Weather View 32 v70,2013-04-30 21:10:00,
2013-04-30 17:15:00,63.7,57.8,30.19,NE,56,8.0,17.0,81,0.00,,,0.00,Weather View 32 v70,2013-04-30 21:15:00,
2013-04-30 17:20:00,64.1,57.9,30.19,NE,34,14.0,17.0,80,0.00,,,0.00,Weather View 32 v70,2013-04-30 21:20:00,
2013-04-30 17:25:00,64.5,58.1,30.19,North,359,5.0,17.0,80,0.00,,,0.00,Weather View 32 v70,2013-04-30 21:25:00,
2013-04-30 17:30:00,65.7,58.7,30.19,NE,53,7.0,17.0,78,0.00,,,0.00,Weather View 32 v70,2013-04-30 21:30:00,
2013-04-30 17:35:00,66.2,58.2,30.19,NW,308,1.0,17.0,76,0.00,,,0.00,Weather View 32 v70,2013-04-30 21:35:00,
2013-04-30 17:40:00,66.1,58.3,30.20,North,4,5.0,17.0,76,0.00,,,0.00,Weather View 32 v70,2013-04-30 21:40:00,
2013-04-30 17:50:00,64.9,58.0,30.20,North,352,3.0,17.0,78,0.00,,,0.00,Weather View 32 v70,2013-04-30 21:50:00,
2013-04-30 17:55:00,64.3,57.8,30.21,NNE,23,6.0,17.0,79,0.00,,,0.00,Weather View 32 v70,2013-04-30 21:55:00,
2013-04-30 18:00:00,63.6,57.2,30.21,NE,51,11.0,16.0,80,0.00,,,0.00,Weather View 32 v70,2013-04-30 22:00:00,
2013-04-30 18:10:00,62.7,57.0,30.21,NE,39,12.0,16.0,82,0.00,,,0.00,Weather View 32 v70,2013-04-30 22:10:00,
2013-04-30 18:15:00,62.3,57.1,30.21,NE,42,8.0,16.0,83,0.00,,,0.00,Weather View 32 v70,2013-04-30 22:15:00,
2013-04-30 18:20:00,61.8,56.9,30.22,NNW,336,4.0,16.0,84,0.00,,,0.00,Weather View 32 v70,2013-04-30 22:20:00,
2013-04-30 18:25:00,61.4,56.7,30.21,NW,325,8.0,16.0,85,0.00,,,0.00,Weather View 32 v70,2013-04-30 22:25:00,
2013-04-30 18:30:00,61.2,56.6,30.22,NNE,24,7.0,16.0,85,0.00,,,0.00,Weather View 32 v70,2013-04-30 22:30:00,
2013-04-30 18:35:00,61.0,56.3,30.21,NE,44,7.0,16.0,85,0.00,,,0.00,Weather View 32 v70,2013-04-30 22:35:00,
2013-04-30 18:45:00,60.8,56.1,30.22,NE,45,10.0,20.0,85,0.00,,,0.00,Weather View 32 v70,2013-04-30 22:45:00,
2013-04-30 18:50:00,60.7,56.1,30.22,NNE,30,13.0,20.0,85,0.00,,,0.00,Weather View 32 v70,2013-04-30 22:50:00,
2013-04-30 18:55:00,60.6,56.1,30.23,NE,34,13.0,20.0,85,0.00,,,0.00,Weather View 32 v70,2013-04-30 22:55:00,
2013-04-30 19:05:00,60.6,55.9,30.23,North,352,5.0,20.0,85,0.00,,,0.00,Weather View 32 v70,2013-04-30 23:05:00,
2013-04-30 19:10:00,60.6,56.0,30.23,SSE,148,4.0,20.0,85,0.00,,,0.00,Weather View 32 v70,2013-04-30 23:10:00,
2013-04-30 19:15:00,60.5,55.9,30.23,NNE,25,2.0,20.0,85,0.00,,,0.00,Weather View 32 v70,2013-04-30 23:15:00,
2013-04-30 19:20:00,60.6,55.9,30.24,North,10,4.0,20.0,85,0.00,,,0.00,Weather View 32 v70,2013-04-30 23:20:00,
2013-04-30 19:25:00,60.6,56.0,30.24,ESE,121,1.0,20.0,85,0.00,,,0.00,Weather View 32 v70,2013-04-30 23:25:00,
2013-04-30 19:35:00,60.5,55.8,30.24,NNE,30,5.0,20.0,85,0.00,,,0.00,Weather View 32 v70,2013-04-30 23:35:00,
2013-04-30 19:45:00,60.3,55.9,30.24,NE,51,4.0,17.0,85,0.00,,,0.00,Weather View 32 v70,2013-04-30 23:45:00,
2013-04-30 19:50:00,60.2,55.8,30.24,East,86,7.0,16.0,85,0.00,,,0.00,Weather View 32 v70,2013-04-30 23:50:00,
2013-04-30 20:00:00,60.2,55.8,30.25,NNE,31,3.0,11.0,85,0.00,,,0.00,Weather View 32 v70,2013-05-01 00:00:00,
2013-04-30 20:05:00,60.1,55.7,30.24,NNE,28,3.0,11.0,85,0.00,,,0.00,Weather View 32 v70,2013-05-01 00:05:00,
2013-04-30 20:15:00,59.9,55.2,30.25,ENE,58,15.0,18.0,84,0.00,,,0.00,Weather View 32 v70,2013-05-01 00:15:00,
2013-04-30 20:20:00,60.0,55.4,30.25,NE,37,11.0,20.0,85,0.00,,,0.00,Weather View 32 v70,2013-05-01 00:20:00,
2013-04-30 20:25:00,59.7,55.2,30.26,NNE,27,10.0,20.0,85,0.00,,,0.00,Weather View 32 v70,2013-05-01 00:25:00,
2013-04-30 20:30:00,59.6,55.2,30.26,East,89,8.0,20.0,85,0.00,,,0.00,Weather View 32 v70,2013-05-01 00:30:00,
2013-04-30 20:35:00,59.5,55.2,30.26,ENE,66,4.0,20.0,86,0.00,,,0.00,Weather View 32 v70,2013-05-01 00:35:00,
2013-04-30 20:40:00,59.5,55.2,30.26,North,11,3.0,20.0,86,0.00,,,0.00,Weather View 32 v70,2013-05-01 00:40:00,
2013-04-30 20:50:00,59.4,55.0,30.26,NE,48,2.0,20.0,86,0.00,,,0.00,Weather View 32 v70,2013-05-01 00:50:00,
2013-04-30 20:55:00,59.5,55.2,30.26,NNE,23,2.0,20.0,86,0.00,,,0.00,Weather View 32 v70,2013-05-01 00:55:00,
2013-04-30 21:00:00,59.5,55.2,30.26,East,84,5.0,20.0,86,0.00,,,0.00,Weather View 32 v70,2013-05-01 01:00:00,
2013-04-30 21:10:00,59.4,55.1,30.27,ENE,68,4.0,20.0,86,0.00,,,0.00,Weather View 32 v70,2013-05-01 01:10:00,
2013-04-30 21:15:00,59.5,55.2,30.27,NNE,18,5.0,20.0,86,0.00,,,0.00,Weather View 32 v70,2013-05-01 01:15:00,
2013-04-30 21:20:00,59.4,55.0,30.27,NNE,31,7.0,16.0,85,0.00,,,0.00,Weather View 32 v70,2013-05-01 01:20:00,
2013-04-30 21:25:00,59.4,55.0,30.27,ENE,77,6.0,12.0,85,0.00,,,0.00,Weather View 32 v70,2013-05-01 01:25:00,
2013-04-30 21:30:00,59.3,55.0,30.27,NE,42,8.0,10.0,86,0.00,,,0.00,Weather View 32 v70,2013-05-01 01:30:00,
2013-04-30 21:35:00,59.3,55.0,30.27,NE,46,7.0,10.0,86,0.00,,,0.00,Weather View 32 v70,2013-05-01 01:35:00,
2013-04-30 21:40:00,59.3,55.0,30.28,NE,38,4.0,10.0,86,0.00,,,0.00,Weather View 32 v70,2013-05-01 01:40:00,
2013-04-30 21:50:00,59.3,55.1,30.28,ESE,117,4.0,10.0,86,0.00,,,0.00,Weather View 32 v70,2013-05-01 01:50:00,
2013-04-30 21:55:00,59.3,55.2,30.28,NE,45,4.0,10.0,86,0.00,,,0.00,Weather View 32 v70,2013-05-01 01:55:00,
2013-04-30 22:00:00,59.2,55.0,30.28,East,97,3.0,10.0,86,0.00,,,0.00,Weather View 32 v70,2013-05-01 02:00:00,
2013-04-30 22:10:00,59.3,55.2,30.29,North,6,0.0,10.0,86,0.00,,,0.00,Weather View 32 v70,2013-05-01 02:10:00,
2013-04-30 22:15:00,59.3,55.3,30.29,NW,305,4.0,10.0,87,0.00,,,0.00,Weather View 32 v70,2013-05-01 02:15:00,
2013-04-30 22:20:00,59.3,55.5,30.29,North,359,2.0,10.0,87,0.00,,,0.00,Weather View 32 v70,2013-05-01 02:20:00,
2013-04-30 22:25:00,59.1,55.6,30.29,North,352,2.0,10.0,88,0.00,,,0.00,Weather View 32 v70,2013-05-01 02:25:00,
2013-04-30 22:30:00,59.0,55.8,30.29,ENE,63,2.0,10.0,89,0.00,,,0.00,Weather View 32 v70,2013-05-01 02:30:00,
2013-04-30 22:35:00,58.9,55.8,30.29,NNE,28,0.0,9.0,89,0.00,,,0.00,Weather View 32 v70,2013-05-01 02:35:00,
2013-04-30 22:40:00,58.7,55.7,30.29,NNE,28,0.0,8.0,90,0.00,,,0.00,Weather View 32 v70,2013-05-01 02:40:00,
2013-04-30 22:50:00,58.7,55.9,30.29,NNE,28,0.0,8.0,90,0.00,,,0.00,Weather View 32 v70,2013-05-01 02:50:00,
2013-04-30 22:55:00,58.7,55.9,30.29,NNE,28,0.0,8.0,91,0.00,,,0.00,Weather View 32 v70,2013-05-01 02:55:00,
2013-04-30 23:00:00,58.7,55.9,30.29,NNW,328,3.0,8.0,90,0.00,,,0.00,Weather View 32 v70,2013-05-01 03:00:00,
2013-04-30 23:10:00,57.8,54.3,30.29,ENE,63,6.0,10.0,88,0.00,,,0.00,Weather View 32 v70,2013-05-01 03:10:00,
2013-04-30 23:15:00,57.4,53.6,30.29,ENE,63,5.0,10.0,87,0.00,,,0.00,Weather View 32 v70,2013-05-01 03:15:00,
2013-04-30 23:20:00,57.1,53.2,30.29,SSE,150,3.0,10.0,87,0.00,,,0.00,Weather View 32 v70,2013-05-01 03:20:00,
2013-04-30 23:27:00,56.8,52.6,30.29,NNE,30,4.0,11.0,86,0.00,,,0.00,Weather View 32 v70,2013-05-01 03:27:00,
2013-04-30 23:35:00,56.4,51.9,30.29,ENE,59,6.0,12.0,85,0.00,,,0.00,Weather View 32 v70,2013-05-01 03:35:00,
2013-04-30 23:40:00,56.3,51.6,30.29,NE,42,5.0,12.0,84,0.00,,,0.00,Weather View 32 v70,2013-05-01 03:40:00,
2013-04-30 23:50:00,56.1,51.4,30.29,NNE,18,3.0,12.0,84,0.00,,,0.00,Weather View 32 v70,2013-05-01 03:50:00,
2013-04-30 23:55:00,56.1,51.2,30.29,NNE,17,4.0,12.0,84,0.00,,,0.00,Weather View 32 v70,2013-05-01 03:55:00,